sensor_id;sensor_type;location;lat;lon;timestamp;temperature;humidity
68867;SHT30;56451;44.804;20.476;2022-07-30T00:00:04;29.17;51.19
68867;SHT30;56451;44.804;20.476;2022-07-30T00:02:31;29.16;51.06
68867;SHT30;56451;44.804;20.476;2022-07-30T00:04:56;29.14;50.96
68867;SHT30;56451;44.804;20.476;2022-07-30T00:07:22;29.13;50.94
68867;SHT30;56451;44.804;20.476;2022-07-30T00:09:48;29.16;50.80
68867;SHT30;56451;44.804;20.476;2022-07-30T00:12:14;29.10;50.70
68867;SHT30;56451;44.804;20.476;2022-07-30T00:14:40;29.13;50.68
68867;SHT30;56451;44.804;20.476;2022-07-30T00:17:05;29.16;50.41
68867;SHT30;56451;44.804;20.476;2022-07-30T00:19:31;29.14;50.42
68867;SHT30;56451;44.804;20.476;2022-07-30T00:21:58;29.11;50.46
68867;SHT30;56451;44.804;20.476;2022-07-30T00:24:23;29.13;50.34
68867;SHT30;56451;44.804;20.476;2022-07-30T00:26:49;29.09;50.57
68867;SHT30;56451;44.804;20.476;2022-07-30T00:29:15;29.04;50.54
68867;SHT30;56451;44.804;20.476;2022-07-30T00:31:41;29.06;50.47
68867;SHT30;56451;44.804;20.476;2022-07-30T00:34:08;29.06;50.58
68867;SHT30;56451;44.804;20.476;2022-07-30T00:36:34;29.00;50.82
68867;SHT30;56451;44.804;20.476;2022-07-30T00:39:00;29.00;50.84
68867;SHT30;56451;44.804;20.476;2022-07-30T00:41:27;28.96;50.93
68867;SHT30;56451;44.804;20.476;2022-07-30T00:43:53;28.90;51.04
68867;SHT30;56451;44.804;20.476;2022-07-30T00:46:19;28.90;51.04
68867;SHT30;56451;44.804;20.476;2022-07-30T00:48:45;28.93;50.99
68867;SHT30;56451;44.804;20.476;2022-07-30T00:51:11;28.84;51.12
68867;SHT30;56451;44.804;20.476;2022-07-30T00:53:37;28.79;51.34
68867;SHT30;56451;44.804;20.476;2022-07-30T00:56:04;28.76;51.48
68867;SHT30;56451;44.804;20.476;2022-07-30T00:58:30;28.75;51.31
68867;SHT30;56451;44.804;20.476;2022-07-30T01:00:55;28.73;51.40
68867;SHT30;56451;44.804;20.476;2022-07-30T01:03:22;28.75;51.38
68867;SHT30;56451;44.804;20.476;2022-07-30T01:05:48;28.72;51.60
68867;SHT30;56451;44.804;20.476;2022-07-30T01:08:14;28.69;51.51
68867;SHT30;56451;44.804;20.476;2022-07-30T01:10:40;28.69;51.50
68867;SHT30;56451;44.804;20.476;2022-07-30T01:13:06;28.69;51.48
68867;SHT30;56451;44.804;20.476;2022-07-30T01:15:33;28.71;51.52
68867;SHT30;56451;44.804;20.476;2022-07-30T01:18:03;28.68;51.61
68867;SHT30;56451;44.804;20.476;2022-07-30T01:20:37;28.68;51.55
68867;SHT30;56451;44.804;20.476;2022-07-30T01:23:50;28.68;51.49
68867;SHT30;56451;44.804;20.476;2022-07-30T01:26:04;28.65;51.56
68867;SHT30;56451;44.804;20.476;2022-07-30T01:28:47;28.63;51.40
68867;SHT30;56451;44.804;20.476;2022-07-30T01:31:15;28.65;51.37
68867;SHT30;56451;44.804;20.476;2022-07-30T01:33:43;28.62;51.35
68867;SHT30;56451;44.804;20.476;2022-07-30T01:36:11;28.59;51.51
68867;SHT30;56451;44.804;20.476;2022-07-30T01:38:40;28.66;51.46
68867;SHT30;56451;44.804;20.476;2022-07-30T01:41:08;28.66;51.43
68867;SHT30;56451;44.804;20.476;2022-07-30T01:43:35;28.68;51.35
68867;SHT30;56451;44.804;20.476;2022-07-30T01:46:03;28.65;51.45
68867;SHT30;56451;44.804;20.476;2022-07-30T01:48:34;28.65;51.54
68867;SHT30;56451;44.804;20.476;2022-07-30T01:51:04;28.66;51.45
68867;SHT30;56451;44.804;20.476;2022-07-30T01:53:33;28.65;51.75
68867;SHT30;56451;44.804;20.476;2022-07-30T01:56:01;28.61;51.73
68867;SHT30;56451;44.804;20.476;2022-07-30T01:58:30;28.62;51.74
68867;SHT30;56451;44.804;20.476;2022-07-30T02:01:03;28.59;51.67
68867;SHT30;56451;44.804;20.476;2022-07-30T02:03:30;28.56;51.87
68867;SHT30;56451;44.804;20.476;2022-07-30T02:06:04;28.61;52.27
68867;SHT30;56451;44.804;20.476;2022-07-30T02:08:40;28.59;52.31
68867;SHT30;56451;44.804;20.476;2022-07-30T02:11:08;28.61;52.23
68867;SHT30;56451;44.804;20.476;2022-07-30T02:13:48;28.61;52.25
68867;SHT30;56451;44.804;20.476;2022-07-30T02:16:26;28.55;52.20
68867;SHT30;56451;44.804;20.476;2022-07-30T02:19:10;28.58;52.14
68867;SHT30;56451;44.804;20.476;2022-07-30T02:21:41;28.58;52.04
68867;SHT30;56451;44.804;20.476;2022-07-30T02:24:13;28.55;52.07
68867;SHT30;56451;44.804;20.476;2022-07-30T02:26:42;28.55;52.06
68867;SHT30;56451;44.804;20.476;2022-07-30T02:29:09;28.52;51.83
68867;SHT30;56451;44.804;20.476;2022-07-30T02:31:37;28.55;51.73
68867;SHT30;56451;44.804;20.476;2022-07-30T02:34:04;28.55;51.59
68867;SHT30;56451;44.804;20.476;2022-07-30T02:36:32;28.56;51.85
68867;SHT30;56451;44.804;20.476;2022-07-30T02:39:02;28.52;51.90
68867;SHT30;56451;44.804;20.476;2022-07-30T02:41:30;28.51;51.83
68867;SHT30;56451;44.804;20.476;2022-07-30T02:43:58;28.49;51.91
68867;SHT30;56451;44.804;20.476;2022-07-30T02:46:25;28.49;52.10
68867;SHT30;56451;44.804;20.476;2022-07-30T02:49:11;28.47;52.18
68867;SHT30;56451;44.804;20.476;2022-07-30T02:51:40;28.41;52.37
68867;SHT30;56451;44.804;20.476;2022-07-30T02:54:07;28.38;52.47
68867;SHT30;56451;44.804;20.476;2022-07-30T02:56:34;28.34;52.53
68867;SHT30;56451;44.804;20.476;2022-07-30T02:59:02;28.32;52.70
68867;SHT30;56451;44.804;20.476;2022-07-30T03:01:30;28.34;52.70
68867;SHT30;56451;44.804;20.476;2022-07-30T03:03:57;28.34;52.71
68867;SHT30;56451;44.804;20.476;2022-07-30T03:06:25;28.29;52.87
68867;SHT30;56451;44.804;20.476;2022-07-30T03:08:52;28.25;53.03
68867;SHT30;56451;44.804;20.476;2022-07-30T03:11:19;28.25;52.98
68867;SHT30;56451;44.804;20.476;2022-07-30T03:13:46;28.27;53.12
68867;SHT30;56451;44.804;20.476;2022-07-30T03:16:15;28.27;53.09
68867;SHT30;56451;44.804;20.476;2022-07-30T03:18:42;28.25;53.08
68867;SHT30;56451;44.804;20.476;2022-07-30T03:21:10;28.27;53.10
68867;SHT30;56451;44.804;20.476;2022-07-30T03:23:39;28.25;53.05
68867;SHT30;56451;44.804;20.476;2022-07-30T03:26:07;28.22;53.02
68867;SHT30;56451;44.804;20.476;2022-07-30T03:28:37;28.21;53.08
68867;SHT30;56451;44.804;20.476;2022-07-30T03:31:05;28.21;53.22
68867;SHT30;56451;44.804;20.476;2022-07-30T03:33:33;28.21;53.01
68867;SHT30;56451;44.804;20.476;2022-07-30T03:35:59;28.18;52.92
68867;SHT30;56451;44.804;20.476;2022-07-30T03:38:26;28.22;52.87
68867;SHT30;56451;44.804;20.476;2022-07-30T03:40:53;28.18;52.92
68867;SHT30;56451;44.804;20.476;2022-07-30T03:43:19;28.17;52.98
68867;SHT30;56451;44.804;20.476;2022-07-30T03:45:46;28.17;53.02
68867;SHT30;56451;44.804;20.476;2022-07-30T03:48:14;28.17;52.99
68867;SHT30;56451;44.804;20.476;2022-07-30T03:50:44;28.14;53.07
68867;SHT30;56451;44.804;20.476;2022-07-30T03:53:11;28.11;53.14
68867;SHT30;56451;44.804;20.476;2022-07-30T03:56:00;28.10;53.21
68867;SHT30;56451;44.804;20.476;2022-07-30T03:59:05;28.10;53.31
68867;SHT30;56451;44.804;20.476;2022-07-30T04:01:32;28.07;53.38
68867;SHT30;56451;44.804;20.476;2022-07-30T04:04:09;28.05;53.63
68867;SHT30;56451;44.804;20.476;2022-07-30T04:06:37;28.03;53.53
68867;SHT30;56451;44.804;20.476;2022-07-30T04:09:09;28.07;53.48
68867;SHT30;56451;44.804;20.476;2022-07-30T04:11:36;28.08;53.48
68867;SHT30;56451;44.804;20.476;2022-07-30T04:14:06;28.10;53.55
68867;SHT30;56451;44.804;20.476;2022-07-30T04:19:27;28.07;53.41
68867;SHT30;56451;44.804;20.476;2022-07-30T04:21:56;28.13;53.28
68867;SHT30;56451;44.804;20.476;2022-07-30T04:24:23;28.13;53.45
68867;SHT30;56451;44.804;20.476;2022-07-30T04:26:50;28.10;53.49
68867;SHT30;56451;44.804;20.476;2022-07-30T04:29:17;28.08;53.54
68867;SHT30;56451;44.804;20.476;2022-07-30T04:31:42;28.08;53.49
68867;SHT30;56451;44.804;20.476;2022-07-30T04:34:48;28.05;53.43
68867;SHT30;56451;44.804;20.476;2022-07-30T04:37:20;28.04;50.74
68867;SHT30;56451;44.804;20.476;2022-07-30T04:39:46;28.05;49.92
68867;SHT30;56451;44.804;20.476;2022-07-30T04:42:14;28.10;50.00
68867;SHT30;56451;44.804;20.476;2022-07-30T04:44:43;28.11;50.90
68867;SHT30;56451;44.804;20.476;2022-07-30T04:47:29;28.13;50.92
68867;SHT30;56451;44.804;20.476;2022-07-30T04:50:17;28.17;50.46
68867;SHT30;56451;44.804;20.476;2022-07-30T04:52:46;28.22;50.84
68867;SHT30;56451;44.804;20.476;2022-07-30T04:55:17;28.25;50.94
68867;SHT30;56451;44.804;20.476;2022-07-30T04:57:45;28.27;50.74
68867;SHT30;56451;44.804;20.476;2022-07-30T05:00:13;28.29;51.15
68867;SHT30;56451;44.804;20.476;2022-07-30T05:02:40;28.34;51.52
68867;SHT30;56451;44.804;20.476;2022-07-30T05:05:09;28.35;51.21
68867;SHT30;56451;44.804;20.476;2022-07-30T05:07:36;28.37;51.24
68867;SHT30;56451;44.804;20.476;2022-07-30T05:10:04;28.38;51.18
68867;SHT30;56451;44.804;20.476;2022-07-30T05:12:34;28.44;51.51
68867;SHT30;56451;44.804;20.476;2022-07-30T05:15:05;28.48;51.33
68867;SHT30;56451;44.804;20.476;2022-07-30T05:17:32;28.51;51.15
68867;SHT30;56451;44.804;20.476;2022-07-30T05:19:59;28.52;51.24
68867;SHT30;56451;44.804;20.476;2022-07-30T05:22:26;28.52;51.36
68867;SHT30;56451;44.804;20.476;2022-07-30T05:24:58;28.55;51.30
68867;SHT30;56451;44.804;20.476;2022-07-30T05:27:24;28.55;51.06
68867;SHT30;56451;44.804;20.476;2022-07-30T05:29:50;28.58;51.30
68867;SHT30;56451;44.804;20.476;2022-07-30T05:32:18;28.56;51.40
68867;SHT30;56451;44.804;20.476;2022-07-30T05:34:44;28.61;51.31
68867;SHT30;56451;44.804;20.476;2022-07-30T05:37:10;28.59;51.33
68867;SHT30;56451;44.804;20.476;2022-07-30T05:39:36;28.59;51.44
68867;SHT30;56451;44.804;20.476;2022-07-30T05:42:22;28.61;51.74
68867;SHT30;56451;44.804;20.476;2022-07-30T05:44:50;28.58;51.35
68867;SHT30;56451;44.804;20.476;2022-07-30T05:47:16;28.58;51.67
68867;SHT30;56451;44.804;20.476;2022-07-30T05:49:46;28.62;51.52
68867;SHT30;56451;44.804;20.476;2022-07-30T05:52:12;28.65;51.87
68867;SHT30;56451;44.804;20.476;2022-07-30T05:54:38;28.61;51.75
68867;SHT30;56451;44.804;20.476;2022-07-30T05:57:22;28.65;51.73
68867;SHT30;56451;44.804;20.476;2022-07-30T05:59:48;28.65;51.79
68867;SHT30;56451;44.804;20.476;2022-07-30T06:02:41;28.68;51.78
68867;SHT30;56451;44.804;20.476;2022-07-30T06:05:27;28.71;51.83
68867;SHT30;56451;44.804;20.476;2022-07-30T06:07:56;28.72;51.98
68867;SHT30;56451;44.804;20.476;2022-07-30T06:10:24;28.76;52.09
68867;SHT30;56451;44.804;20.476;2022-07-30T06:12:50;28.78;52.01
68867;SHT30;56451;44.804;20.476;2022-07-30T06:15:17;28.80;51.75
68867;SHT30;56451;44.804;20.476;2022-07-30T06:17:44;28.83;51.99
68867;SHT30;56451;44.804;20.476;2022-07-30T06:20:33;28.89;52.01
68867;SHT30;56451;44.804;20.476;2022-07-30T06:23:34;28.92;51.92
68867;SHT30;56451;44.804;20.476;2022-07-30T06:26:10;28.93;51.62
68867;SHT30;56451;44.804;20.476;2022-07-30T06:28:36;28.95;51.99
68867;SHT30;56451;44.804;20.476;2022-07-30T06:31:02;28.98;52.06
68867;SHT30;56451;44.804;20.476;2022-07-30T06:33:28;28.99;52.17
68867;SHT30;56451;44.804;20.476;2022-07-30T06:35:54;29.04;51.87
68867;SHT30;56451;44.804;20.476;2022-07-30T06:38:23;29.06;52.02
68867;SHT30;56451;44.804;20.476;2022-07-30T06:41:01;29.11;52.11
68867;SHT30;56451;44.804;20.476;2022-07-30T06:43:46;29.16;51.92
68867;SHT30;56451;44.804;20.476;2022-07-30T06:46:24;29.21;51.92
68867;SHT30;56451;44.804;20.476;2022-07-30T06:48:51;29.26;51.52
68867;SHT30;56451;44.804;20.476;2022-07-30T06:51:18;29.26;51.84
68867;SHT30;56451;44.804;20.476;2022-07-30T06:53:43;29.31;52.02
68867;SHT30;56451;44.804;20.476;2022-07-30T06:56:11;29.35;52.08
68867;SHT30;56451;44.804;20.476;2022-07-30T06:58:53;29.41;51.32
68867;SHT30;56451;44.804;20.476;2022-07-30T07:01:38;29.51;51.90
68867;SHT30;56451;44.804;20.476;2022-07-30T07:04:05;29.59;51.37
68867;SHT30;56451;44.804;20.476;2022-07-30T07:06:32;29.65;50.68
68867;SHT30;56451;44.804;20.476;2022-07-30T07:08:59;29.75;50.70
68867;SHT30;56451;44.804;20.476;2022-07-30T07:11:33;29.82;50.65
68867;SHT30;56451;44.804;20.476;2022-07-30T07:14:04;29.92;50.62
68867;SHT30;56451;44.804;20.476;2022-07-30T07:16:33;29.99;50.30
68867;SHT30;56451;44.804;20.476;2022-07-30T07:19:07;30.02;48.71
68867;SHT30;56451;44.804;20.476;2022-07-30T07:21:33;30.09;49.29
68867;SHT30;56451;44.804;20.476;2022-07-30T07:23:59;30.13;49.70
68867;SHT30;56451;44.804;20.476;2022-07-30T07:26:45;30.19;49.00
68867;SHT30;56451;44.804;20.476;2022-07-30T07:29:12;30.23;49.12
68867;SHT30;56451;44.804;20.476;2022-07-30T07:31:38;30.27;48.71
68867;SHT30;56451;44.804;20.476;2022-07-30T07:34:03;30.26;49.25
68867;SHT30;56451;44.804;20.476;2022-07-30T07:36:29;30.35;48.81
68867;SHT30;56451;44.804;20.476;2022-07-30T07:38:55;30.37;48.93
68867;SHT30;56451;44.804;20.476;2022-07-30T07:41:21;30.40;48.62
68867;SHT30;56451;44.804;20.476;2022-07-30T07:43:47;30.43;48.58
68867;SHT30;56451;44.804;20.476;2022-07-30T07:46:21;30.47;48.51
68867;SHT30;56451;44.804;20.476;2022-07-30T07:48:47;30.47;47.92
68867;SHT30;56451;44.804;20.476;2022-07-30T07:51:31;30.48;48.40
68867;SHT30;56451;44.804;20.476;2022-07-30T07:53:57;30.50;48.39
68867;SHT30;56451;44.804;20.476;2022-07-30T07:56:23;30.54;48.36
68867;SHT30;56451;44.804;20.476;2022-07-30T07:58:49;30.57;48.21
68867;SHT30;56451;44.804;20.476;2022-07-30T08:01:20;30.60;47.00
68867;SHT30;56451;44.804;20.476;2022-07-30T08:04:07;30.61;47.34
68867;SHT30;56451;44.804;20.476;2022-07-30T08:06:53;30.61;47.04
68867;SHT30;56451;44.804;20.476;2022-07-30T08:09:48;30.73;47.26
68867;SHT30;56451;44.804;20.476;2022-07-30T08:12:32;30.77;47.58
68867;SHT30;56451;44.804;20.476;2022-07-30T08:15:16;30.80;47.25
68867;SHT30;56451;44.804;20.476;2022-07-30T08:17:45;30.88;47.74
68867;SHT30;56451;44.804;20.476;2022-07-30T08:20:17;30.94;47.38
68867;SHT30;56451;44.804;20.476;2022-07-30T08:22:43;30.96;47.33
68867;SHT30;56451;44.804;20.476;2022-07-30T08:25:10;31.01;46.94
68867;SHT30;56451;44.804;20.476;2022-07-30T08:27:36;31.07;46.88
68867;SHT30;56451;44.804;20.476;2022-07-30T08:30:06;31.12;46.89
68867;SHT30;56451;44.804;20.476;2022-07-30T08:32:33;31.21;46.81
68867;SHT30;56451;44.804;20.476;2022-07-30T08:35:00;31.23;46.37
68867;SHT30;56451;44.804;20.476;2022-07-30T08:37:26;31.28;47.01
68867;SHT30;56451;44.804;20.476;2022-07-30T08:39:52;31.36;46.32
68867;SHT30;56451;44.804;20.476;2022-07-30T08:42:18;31.39;46.17
68867;SHT30;56451;44.804;20.476;2022-07-30T08:44:45;31.45;45.79
68867;SHT30;56451;44.804;20.476;2022-07-30T08:47:16;31.47;45.50
68867;SHT30;56451;44.804;20.476;2022-07-30T08:50:06;31.53;45.34
68867;SHT30;56451;44.804;20.476;2022-07-30T08:52:36;31.58;45.13
68867;SHT30;56451;44.804;20.476;2022-07-30T08:55:06;31.65;45.18
68867;SHT30;56451;44.804;20.476;2022-07-30T08:57:35;31.70;44.76
68867;SHT30;56451;44.804;20.476;2022-07-30T09:00:04;31.80;44.43
68867;SHT30;56451;44.804;20.476;2022-07-30T09:02:32;31.86;44.23
68867;SHT30;56451;44.804;20.476;2022-07-30T09:05:03;31.89;44.18
68867;SHT30;56451;44.804;20.476;2022-07-30T09:07:31;31.91;44.02
68867;SHT30;56451;44.804;20.476;2022-07-30T09:09:58;31.96;44.11
68867;SHT30;56451;44.804;20.476;2022-07-30T09:12:40;32.03;43.84
68867;SHT30;56451;44.804;20.476;2022-07-30T09:20:20;32.23;43.58
68867;SHT30;56451;44.804;20.476;2022-07-30T09:22:51;32.25;43.23
68867;SHT30;56451;44.804;20.476;2022-07-30T09:25:41;32.34;43.22
68867;SHT30;56451;44.804;20.476;2022-07-30T09:28:31;32.39;43.33
68867;SHT30;56451;44.804;20.476;2022-07-30T09:31:29;32.38;42.92
68867;SHT30;56451;44.804;20.476;2022-07-30T09:37:19;32.45;41.76
68867;SHT30;56451;44.804;20.476;2022-07-30T09:40:23;32.58;41.41
68867;SHT30;56451;44.804;20.476;2022-07-30T09:43:10;32.66;41.31
68867;SHT30;56451;44.804;20.476;2022-07-30T09:45:52;32.72;41.39
68867;SHT30;56451;44.804;20.476;2022-07-30T09:48:24;32.75;43.69
68867;SHT30;56451;44.804;20.476;2022-07-30T09:50:52;32.74;45.01
68867;SHT30;56451;44.804;20.476;2022-07-30T09:53:18;32.71;44.68
68867;SHT30;56451;44.804;20.476;2022-07-30T09:55:47;32.68;45.68
68867;SHT30;56451;44.804;20.476;2022-07-30T09:58:14;32.59;46.16
68867;SHT30;56451;44.804;20.476;2022-07-30T10:00:40;32.52;46.24
68867;SHT30;56451;44.804;20.476;2022-07-30T10:03:29;32.35;46.79
68867;SHT30;56451;44.804;20.476;2022-07-30T10:06:18;32.18;47.09
68867;SHT30;56451;44.804;20.476;2022-07-30T10:08:56;32.06;47.97
68867;SHT30;56451;44.804;20.476;2022-07-30T10:11:22;32.00;46.32
68867;SHT30;56451;44.804;20.476;2022-07-30T10:13:54;31.86;47.22
68867;SHT30;56451;44.804;20.476;2022-07-30T10:16:23;31.69;46.81
68867;SHT30;56451;44.804;20.476;2022-07-30T10:18:51;31.52;47.18
68867;SHT30;56451;44.804;20.476;2022-07-30T10:21:53;31.41;48.22
68867;SHT30;56451;44.804;20.476;2022-07-30T10:24:41;31.41;48.56
68867;SHT30;56451;44.804;20.476;2022-07-30T10:27:26;31.39;48.22
68867;SHT30;56451;44.804;20.476;2022-07-30T10:30:18;31.42;48.54
68867;SHT30;56451;44.804;20.476;2022-07-30T10:32:46;31.46;47.74
68867;SHT30;56451;44.804;20.476;2022-07-30T10:35:12;31.56;47.38
68867;SHT30;56451;44.804;20.476;2022-07-30T10:37:47;31.60;47.03
68867;SHT30;56451;44.804;20.476;2022-07-30T10:40:19;31.67;47.01
68867;SHT30;56451;44.804;20.476;2022-07-30T10:43:16;31.70;46.67
68867;SHT30;56451;44.804;20.476;2022-07-30T10:46:11;31.74;46.92
68867;SHT30;56451;44.804;20.476;2022-07-30T10:48:40;31.81;47.08
68867;SHT30;56451;44.804;20.476;2022-07-30T10:51:06;31.86;47.18
68867;SHT30;56451;44.804;20.476;2022-07-30T10:53:34;31.83;46.42
68867;SHT30;56451;44.804;20.476;2022-07-30T10:56:29;31.93;46.86
68867;SHT30;56451;44.804;20.476;2022-07-30T10:59:05;31.97;45.80
68867;SHT30;56451;44.804;20.476;2022-07-30T11:02:07;31.96;45.67
68867;SHT30;56451;44.804;20.476;2022-07-30T11:04:34;31.93;45.92
68867;SHT30;56451;44.804;20.476;2022-07-30T11:09:53;32.06;45.82
68867;SHT30;56451;44.804;20.476;2022-07-30T11:15:10;32.25;46.73
68867;SHT30;56451;44.804;20.476;2022-07-30T11:17:56;32.29;46.63
68867;SHT30;56451;44.804;20.476;2022-07-30T11:20:23;32.31;46.72
68867;SHT30;56451;44.804;20.476;2022-07-30T11:22:49;32.34;46.39
68867;SHT30;56451;44.804;20.476;2022-07-30T11:27:50;32.25;46.33
68867;SHT30;56451;44.804;20.476;2022-07-30T11:32:43;32.28;46.23
68867;SHT30;56451;44.804;20.476;2022-07-30T11:40:35;32.29;46.45
68867;SHT30;56451;44.804;20.476;2022-07-30T11:43:28;32.34;46.20
68867;SHT30;56451;44.804;20.476;2022-07-30T11:46:07;32.31;46.17
68867;SHT30;56451;44.804;20.476;2022-07-30T11:48:35;32.31;45.97
68867;SHT30;56451;44.804;20.476;2022-07-30T11:51:02;32.27;46.54
68867;SHT30;56451;44.804;20.476;2022-07-30T11:53:28;32.18;46.53
68867;SHT30;56451;44.804;20.476;2022-07-30T11:55:57;32.18;46.66
68867;SHT30;56451;44.804;20.476;2022-07-30T11:58:36;32.18;46.39
68867;SHT30;56451;44.804;20.476;2022-07-30T12:01:14;32.18;46.42
68867;SHT30;56451;44.804;20.476;2022-07-30T12:03:44;32.23;45.88
68867;SHT30;56451;44.804;20.476;2022-07-30T12:06:12;32.24;45.70
68867;SHT30;56451;44.804;20.476;2022-07-30T12:08:44;32.18;45.46
68867;SHT30;56451;44.804;20.476;2022-07-30T12:11:10;32.18;45.57
68867;SHT30;56451;44.804;20.476;2022-07-30T12:13:37;32.10;46.49
68867;SHT30;56451;44.804;20.476;2022-07-30T12:16:07;31.93;46.72
68867;SHT30;56451;44.804;20.476;2022-07-30T12:18:34;31.72;46.83
68867;SHT30;56451;44.804;20.476;2022-07-30T12:21:04;31.60;46.84
68867;SHT30;56451;44.804;20.476;2022-07-30T12:23:35;31.49;47.50
68867;SHT30;56451;44.804;20.476;2022-07-30T12:26:01;31.41;48.36
68867;SHT30;56451;44.804;20.476;2022-07-30T12:28:29;31.45;48.20
68867;SHT30;56451;44.804;20.476;2022-07-30T12:30:56;31.42;48.71
68867;SHT30;56451;44.804;20.476;2022-07-30T12:33:23;31.38;49.56
68867;SHT30;56451;44.804;20.476;2022-07-30T12:35:54;31.35;49.92
68867;SHT30;56451;44.804;20.476;2022-07-30T12:38:22;31.33;50.55
68867;SHT30;56451;44.804;20.476;2022-07-30T12:41:01;31.33;50.27
68867;SHT30;56451;44.804;20.476;2022-07-30T12:43:53;31.31;49.64
68867;SHT30;56451;44.804;20.476;2022-07-30T12:49:00;31.31;47.81
68867;SHT30;56451;44.804;20.476;2022-07-30T12:51:33;31.38;47.12
68867;SHT30;56451;44.804;20.476;2022-07-30T12:54:20;31.47;46.72
68867;SHT30;56451;44.804;20.476;2022-07-30T12:57:03;31.54;46.34
68867;SHT30;56451;44.804;20.476;2022-07-30T12:59:30;31.47;46.63
68867;SHT30;56451;44.804;20.476;2022-07-30T13:01:57;31.47;46.13
68867;SHT30;56451;44.804;20.476;2022-07-30T13:04:25;31.42;46.19
68867;SHT30;56451;44.804;20.476;2022-07-30T13:07:08;31.31;46.47
68867;SHT30;56451;44.804;20.476;2022-07-30T13:09:35;31.35;47.55
68867;SHT30;56451;44.804;20.476;2022-07-30T13:12:02;31.33;50.28
68867;SHT30;56451;44.804;20.476;2022-07-30T13:14:29;31.23;51.36
68867;SHT30;56451;44.804;20.476;2022-07-30T13:16:55;31.10;50.28
68867;SHT30;56451;44.804;20.476;2022-07-30T13:19:23;30.91;51.79
68867;SHT30;56451;44.804;20.476;2022-07-30T13:21:49;30.71;52.49
68867;SHT30;56451;44.804;20.476;2022-07-30T13:24:14;30.65;53.23
68867;SHT30;56451;44.804;20.476;2022-07-30T13:26:40;30.61;53.76
68867;SHT30;56451;44.804;20.476;2022-07-30T13:29:06;30.63;52.78
68867;SHT30;56451;44.804;20.476;2022-07-30T13:31:32;30.61;52.97
68867;SHT30;56451;44.804;20.476;2022-07-30T13:33:58;30.70;53.11
68867;SHT30;56451;44.804;20.476;2022-07-30T13:36:24;30.71;50.51
68867;SHT30;56451;44.804;20.476;2022-07-30T13:38:50;30.71;50.20
68867;SHT30;56451;44.804;20.476;2022-07-30T13:41:15;30.77;49.89
68867;SHT30;56451;44.804;20.476;2022-07-30T13:43:43;30.78;48.64
68867;SHT30;56451;44.804;20.476;2022-07-30T13:46:09;30.85;48.54
68867;SHT30;56451;44.804;20.476;2022-07-30T13:48:34;30.95;48.74
68867;SHT30;56451;44.804;20.476;2022-07-30T13:51:01;31.05;47.94
68867;SHT30;56451;44.804;20.476;2022-07-30T13:53:27;31.16;47.29
68867;SHT30;56451;44.804;20.476;2022-07-30T13:55:54;31.23;46.72
68867;SHT30;56451;44.804;20.476;2022-07-30T13:58:20;31.33;45.94
68867;SHT30;56451;44.804;20.476;2022-07-30T14:00:46;31.32;45.54
68867;SHT30;56451;44.804;20.476;2022-07-30T14:03:13;31.28;45.32
68867;SHT30;56451;44.804;20.476;2022-07-30T14:05:40;31.26;45.15
68867;SHT30;56451;44.804;20.476;2022-07-30T14:08:07;31.32;45.35
68867;SHT30;56451;44.804;20.476;2022-07-30T14:10:34;31.33;45.05
68867;SHT30;56451;44.804;20.476;2022-07-30T14:13:02;31.35;44.35
68867;SHT30;56451;44.804;20.476;2022-07-30T14:15:29;31.32;44.85
68867;SHT30;56451;44.804;20.476;2022-07-30T14:17:56;31.31;45.41
68867;SHT30;56451;44.804;20.476;2022-07-30T14:20:22;31.32;45.36
68867;SHT30;56451;44.804;20.476;2022-07-30T14:22:48;31.26;45.19
68867;SHT30;56451;44.804;20.476;2022-07-30T14:25:14;31.25;45.47
68867;SHT30;56451;44.804;20.476;2022-07-30T14:27:40;31.19;45.18
68867;SHT30;56451;44.804;20.476;2022-07-30T14:30:07;31.11;44.63
68867;SHT30;56451;44.804;20.476;2022-07-30T14:32:34;31.02;44.51
68867;SHT30;56451;44.804;20.476;2022-07-30T14:35:00;30.96;43.41
68867;SHT30;56451;44.804;20.476;2022-07-30T14:37:26;30.88;43.41
68867;SHT30;56451;44.804;20.476;2022-07-30T14:39:52;30.83;43.37
68867;SHT30;56451;44.804;20.476;2022-07-30T14:42:19;30.81;44.02
68867;SHT30;56451;44.804;20.476;2022-07-30T14:44:45;30.83;44.65
68867;SHT30;56451;44.804;20.476;2022-07-30T14:50:57;30.78;44.99
68867;SHT30;56451;44.804;20.476;2022-07-30T14:53:26;30.78;44.64
68867;SHT30;56451;44.804;20.476;2022-07-30T14:55:52;30.78;45.25
68867;SHT30;56451;44.804;20.476;2022-07-30T14:58:18;30.81;44.56
68867;SHT30;56451;44.804;20.476;2022-07-30T15:00:44;30.80;42.10
68867;SHT30;56451;44.804;20.476;2022-07-30T15:03:10;30.80;44.34
68867;SHT30;56451;44.804;20.476;2022-07-30T15:05:36;30.78;44.99
68867;SHT30;56451;44.804;20.476;2022-07-30T15:08:02;30.80;44.07
68867;SHT30;56451;44.804;20.476;2022-07-30T15:10:28;30.80;43.27
68867;SHT30;56451;44.804;20.476;2022-07-30T15:12:54;30.77;44.77
68867;SHT30;56451;44.804;20.476;2022-07-30T15:15:20;30.78;43.51
68867;SHT30;56451;44.804;20.476;2022-07-30T15:17:46;30.78;42.80
68867;SHT30;56451;44.804;20.476;2022-07-30T15:20:12;30.74;43.98
68867;SHT30;56451;44.804;20.476;2022-07-30T15:22:38;30.75;43.96
68867;SHT30;56451;44.804;20.476;2022-07-30T15:25:04;30.73;43.74
68867;SHT30;56451;44.804;20.476;2022-07-30T15:27:31;30.74;45.85
68867;SHT30;56451;44.804;20.476;2022-07-30T15:29:57;30.73;44.70
68867;SHT30;56451;44.804;20.476;2022-07-30T15:32:23;30.67;49.20
68867;SHT30;56451;44.804;20.476;2022-07-30T15:34:49;30.57;49.22
68867;SHT30;56451;44.804;20.476;2022-07-30T15:37:15;30.47;49.24
68867;SHT30;56451;44.804;20.476;2022-07-30T15:39:42;30.39;49.98
68867;SHT30;56451;44.804;20.476;2022-07-30T15:42:08;30.29;49.06
68867;SHT30;56451;44.804;20.476;2022-07-30T15:44:34;30.19;49.54
68867;SHT30;56451;44.804;20.476;2022-07-30T15:47:00;30.17;49.13
68867;SHT30;56451;44.804;20.476;2022-07-30T15:49:27;30.10;48.75
68867;SHT30;56451;44.804;20.476;2022-07-30T15:51:53;30.05;49.05
68867;SHT30;56451;44.804;20.476;2022-07-30T15:54:20;30.04;48.87
68867;SHT30;56451;44.804;20.476;2022-07-30T15:56:52;29.98;49.55
68867;SHT30;56451;44.804;20.476;2022-07-30T15:59:20;29.93;49.47
68867;SHT30;56451;44.804;20.476;2022-07-30T16:01:46;29.82;50.03
68867;SHT30;56451;44.804;20.476;2022-07-30T16:04:13;29.72;50.70
68867;SHT30;56451;44.804;20.476;2022-07-30T16:06:39;29.62;51.22
68867;SHT30;56451;44.804;20.476;2022-07-30T16:09:06;29.53;52.96